sensor_id;sensor_type;location;lat;lon;timestamp;temperature;humidity
33717;DHT22;20046;50.746;7.072;2023-02-04T00:00:55;8.50;99.90
33717;DHT22;20046;50.746;7.072;2023-02-04T00:03:21;8.50;99.90
33717;DHT22;20046;50.746;7.072;2023-02-04T00:05:46;8.50;99.90
33717;DHT22;20046;50.746;7.072;2023-02-04T00:08:12;8.50;99.90
33717;DHT22;20046;50.746;7.072;2023-02-04T00:10:38;8.50;99.90
33717;DHT22;20046;50.746;7.072;2023-02-04T00:13:03;8.50;99.90
33717;DHT22;20046;50.746;7.072;2023-02-04T00:15:29;8.40;99.90
33717;DHT22;20046;50.746;7.072;2023-02-04T00:17:55;8.40;99.90
33717;DHT22;20046;50.746;7.072;2023-02-04T00:20:21;8.30;99.90
33717;DHT22;20046;50.746;7.072;2023-02-04T00:22:47;8.40;99.90
33717;DHT22;20046;50.746;7.072;2023-02-04T00:25:12;8.30;99.90
33717;DHT22;20046;50.746;7.072;2023-02-04T00:27:38;8.30;99.90
33717;DHT22;20046;50.746;7.072;2023-02-04T00:30:05;8.30;99.90
33717;DHT22;20046;50.746;7.072;2023-02-04T00:32:31;8.30;99.90
33717;DHT22;20046;50.746;7.072;2023-02-04T00:34:56;8.30;99.90
33717;DHT22;20046;50.746;7.072;2023-02-04T00:37:22;8.30;99.90
33717;DHT22;20046;50.746;7.072;2023-02-04T00:39:48;8.30;99.90
33717;DHT22;20046;50.746;7.072;2023-02-04T00:42:13;8.30;99.90
33717;DHT22;20046;50.746;7.072;2023-02-04T00:44:39;8.20;99.90
33717;DHT22;20046;50.746;7.072;2023-02-04T00:47:05;8.20;99.90
33717;DHT22;20046;50.746;7.072;2023-02-04T00:49:32;8.20;99.90
33717;DHT22;20046;50.746;7.072;2023-02-04T00:51:58;8.20;99.90
33717;DHT22;20046;50.746;7.072;2023-02-04T00:54:23;8.20;99.90
33717;DHT22;20046;50.746;7.072;2023-02-04T00:56:49;8.20;99.90
33717;DHT22;20046;50.746;7.072;2023-02-04T00:59:15;8.20;99.90
33717;DHT22;20046;50.746;7.072;2023-02-04T01:01:41;8.10;99.90
33717;DHT22;20046;50.746;7.072;2023-02-04T01:04:06;8.20;99.90
33717;DHT22;20046;50.746;7.072;2023-02-04T01:06:32;8.10;99.90
33717;DHT22;20046;50.746;7.072;2023-02-04T01:08:58;8.10;99.90
33717;DHT22;20046;50.746;7.072;2023-02-04T01:11:23;8.20;99.90
33717;DHT22;20046;50.746;7.072;2023-02-04T01:13:49;8.20;99.90
33717;DHT22;20046;50.746;7.072;2023-02-04T01:16:14;8.10;99.90
33717;DHT22;20046;50.746;7.072;2023-02-04T01:18:40;8.10;99.90
33717;DHT22;20046;50.746;7.072;2023-02-04T01:21:06;8.10;99.90
33717;DHT22;20046;50.746;7.072;2023-02-04T01:23:31;8.10;99.90
33717;DHT22;20046;50.746;7.072;2023-02-04T01:25:57;8.10;99.90
33717;DHT22;20046;50.746;7.072;2023-02-04T01:28:23;8.10;99.90
33717;DHT22;20046;50.746;7.072;2023-02-04T01:30:49;8.10;99.90
33717;DHT22;20046;50.746;7.072;2023-02-04T01:33:15;8.10;99.90
33717;DHT22;20046;50.746;7.072;2023-02-04T01:35:40;8.10;99.90
33717;DHT22;20046;50.746;7.072;2023-02-04T01:38:06;8.10;99.90
33717;DHT22;20046;50.746;7.072;2023-02-04T01:40:32;8.00;99.90
33717;DHT22;20046;50.746;7.072;2023-02-04T01:42:57;8.00;99.90
33717;DHT22;20046;50.746;7.072;2023-02-04T01:45:23;8.10;99.90
33717;DHT22;20046;50.746;7.072;2023-02-04T01:47:49;8.00;99.90
33717;DHT22;20046;50.746;7.072;2023-02-04T01:50:16;8.00;99.90
33717;DHT22;20046;50.746;7.072;2023-02-04T01:52:43;8.00;99.90
33717;DHT22;20046;50.746;7.072;2023-02-04T01:55:15;8.00;99.90
33717;DHT22;20046;50.746;7.072;2023-02-04T01:57:41;8.00;99.90
33717;DHT22;20046;50.746;7.072;2023-02-04T02:00:21;8.00;99.90
33717;DHT22;20046;50.746;7.072;2023-02-04T02:02:49;8.00;99.90
33717;DHT22;20046;50.746;7.072;2023-02-04T02:05:21;8.00;99.90
33717;DHT22;20046;50.746;7.072;2023-02-04T02:07:48;7.90;99.90
33717;DHT22;20046;50.746;7.072;2023-02-04T02:10:16;8.00;99.90
33717;DHT22;20046;50.746;7.072;2023-02-04T02:12:43;7.90;99.90
33717;DHT22;20046;50.746;7.072;2023-02-04T02:15:11;7.90;99.90
33717;DHT22;20046;50.746;7.072;2023-02-04T02:17:37;7.90;99.90
33717;DHT22;20046;50.746;7.072;2023-02-04T02:20:05;7.90;99.90
33717;DHT22;20046;50.746;7.072;2023-02-04T02:22:36;7.90;99.90
33717;DHT22;20046;50.746;7.072;2023-02-04T02:25:12;7.90;99.90
33717;DHT22;20046;50.746;7.072;2023-02-04T02:27:38;7.90;99.90
33717;DHT22;20046;50.746;7.072;2023-02-04T02:33:25;7.90;99.90
33717;DHT22;20046;50.746;7.072;2023-02-04T02:35:51;7.80;99.90
33717;DHT22;20046;50.746;7.072;2023-02-04T02:38:18;7.80;99.90
33717;DHT22;20046;50.746;7.072;2023-02-04T02:40:44;7.80;99.90
33717;DHT22;20046;50.746;7.072;2023-02-04T02:43:18;7.80;99.90
33717;DHT22;20046;50.746;7.072;2023-02-04T02:45:45;7.70;99.90
33717;DHT22;20046;50.746;7.072;2023-02-04T02:48:11;7.70;99.90
33717;DHT22;20046;50.746;7.072;2023-02-04T02:50:37;7.70;99.90
33717;DHT22;20046;50.746;7.072;2023-02-04T02:53:08;7.70;99.90
33717;DHT22;20046;50.746;7.072;2023-02-04T02:55:34;7.70;99.90
33717;DHT22;20046;50.746;7.072;2023-02-04T02:58:00;7.70;99.90
33717;DHT22;20046;50.746;7.072;2023-02-04T03:00:27;7.60;99.90
33717;DHT22;20046;50.746;7.072;2023-02-04T03:03:11;7.60;99.90
33717;DHT22;20046;50.746;7.072;2023-02-04T03:05:41;7.60;99.90
33717;DHT22;20046;50.746;7.072;2023-02-04T03:08:09;7.60;99.90
33717;DHT22;20046;50.746;7.072;2023-02-04T03:10:35;7.60;99.90
33717;DHT22;20046;50.746;7.072;2023-02-04T03:13:02;7.60;99.90
33717;DHT22;20046;50.746;7.072;2023-02-04T03:15:28;7.60;99.90
33717;DHT22;20046;50.746;7.072;2023-02-04T03:17:54;7.50;99.90
33717;DHT22;20046;50.746;7.072;2023-02-04T03:20:23;7.50;99.90
33717;DHT22;20046;50.746;7.072;2023-02-04T03:22:49;7.50;99.90
33717;DHT22;20046;50.746;7.072;2023-02-04T03:25:15;7.50;99.90
33717;DHT22;20046;50.746;7.072;2023-02-04T03:27:41;7.50;99.90
33717;DHT22;20046;50.746;7.072;2023-02-04T03:30:07;7.50;99.90
33717;DHT22;20046;50.746;7.072;2023-02-04T03:32:33;7.50;99.90
33717;DHT22;20046;50.746;7.072;2023-02-04T03:34:59;7.50;99.90
33717;DHT22;20046;50.746;7.072;2023-02-04T03:37:24;7.50;99.90
33717;DHT22;20046;50.746;7.072;2023-02-04T03:39:50;7.50;99.90
33717;DHT22;20046;50.746;7.072;2023-02-04T03:42:15;7.50;99.90
33717;DHT22;20046;50.746;7.072;2023-02-04T03:44:42;7.50;99.90
33717;DHT22;20046;50.746;7.072;2023-02-04T03:47:07;7.50;99.90
33717;DHT22;20046;50.746;7.072;2023-02-04T03:49:33;7.50;99.90
33717;DHT22;20046;50.746;7.072;2023-02-04T03:52:00;7.50;99.90
33717;DHT22;20046;50.746;7.072;2023-02-04T03:54:26;7.50;99.90
33717;DHT22;20046;50.746;7.072;2023-02-04T03:56:51;7.40;99.90
33717;DHT22;20046;50.746;7.072;2023-02-04T03:59:17;7.40;99.90
33717;DHT22;20046;50.746;7.072;2023-02-04T04:01:43;7.40;99.90
33717;DHT22;20046;50.746;7.072;2023-02-04T04:04:08;7.40;99.90
33717;DHT22;20046;50.746;7.072;2023-02-04T04:06:34;7.40;99.90
33717;DHT22;20046;50.746;7.072;2023-02-04T04:08:59;7.40;99.90
33717;DHT22;20046;50.746;7.072;2023-02-04T04:11:25;7.40;99.90
33717;DHT22;20046;50.746;7.072;2023-02-04T04:13:50;7.40;99.90
33717;DHT22;20046;50.746;7.072;2023-02-04T04:16:16;7.40;99.90
33717;DHT22;20046;50.746;7.072;2023-02-04T04:18:42;7.40;99.90
33717;DHT22;20046;50.746;7.072;2023-02-04T04:21:07;7.30;99.90
33717;DHT22;20046;50.746;7.072;2023-02-04T04:23:33;7.40;99.90
33717;DHT22;20046;50.746;7.072;2023-02-04T04:25:59;7.40;99.90
33717;DHT22;20046;50.746;7.072;2023-02-04T04:28:24;7.30;99.90
33717;DHT22;20046;50.746;7.072;2023-02-04T04:30:50;7.30;99.90
33717;DHT22;20046;50.746;7.072;2023-02-04T04:33:16;7.40;99.90
33717;DHT22;20046;50.746;7.072;2023-02-04T04:35:41;7.30;99.90
33717;DHT22;20046;50.746;7.072;2023-02-04T04:38:07;7.30;99.90
33717;DHT22;20046;50.746;7.072;2023-02-04T04:40:32;7.30;99.90
33717;DHT22;20046;50.746;7.072;2023-02-04T04:42:58;7.20;99.90
33717;DHT22;20046;50.746;7.072;2023-02-04T04:45:23;7.30;99.90
33717;DHT22;20046;50.746;7.072;2023-02-04T04:47:49;7.30;99.90
33717;DHT22;20046;50.746;7.072;2023-02-04T04:50:15;7.30;99.90
33717;DHT22;20046;50.746;7.072;2023-02-04T04:52:40;7.20;99.90
33717;DHT22;20046;50.746;7.072;2023-02-04T04:55:06;7.20;99.90
33717;DHT22;20046;50.746;7.072;2023-02-04T04:57:33;7.20;99.90
33717;DHT22;20046;50.746;7.072;2023-02-04T04:59:58;7.20;99.90
33717;DHT22;20046;50.746;7.072;2023-02-04T05:02:24;7.20;99.90
33717;DHT22;20046;50.746;7.072;2023-02-04T05:04:49;7.20;99.90
33717;DHT22;20046;50.746;7.072;2023-02-04T05:07:15;7.20;99.90
33717;DHT22;20046;50.746;7.072;2023-02-04T05:09:41;7.20;99.90
33717;DHT22;20046;50.746;7.072;2023-02-04T05:12:07;7.10;99.90
33717;DHT22;20046;50.746;7.072;2023-02-04T05:14:32;7.10;99.90
33717;DHT22;20046;50.746;7.072;2023-02-04T05:16:58;7.20;99.90
33717;DHT22;20046;50.746;7.072;2023-02-04T05:19:23;7.10;99.90
33717;DHT22;20046;50.746;7.072;2023-02-04T05:21:49;7.10;99.90
33717;DHT22;20046;50.746;7.072;2023-02-04T05:24:15;7.10;99.90
33717;DHT22;20046;50.746;7.072;2023-02-04T05:26:40;7.10;99.90
33717;DHT22;20046;50.746;7.072;2023-02-04T05:29:06;7.10;99.90
33717;DHT22;20046;50.746;7.072;2023-02-04T05:31:31;7.10;99.90
33717;DHT22;20046;50.746;7.072;2023-02-04T05:33:58;7.10;99.90
33717;DHT22;20046;50.746;7.072;2023-02-04T05:36:24;7.10;99.90
33717;DHT22;20046;50.746;7.072;2023-02-04T05:38:49;7.10;99.90
33717;DHT22;20046;50.746;7.072;2023-02-04T05:41:15;7.10;99.90
33717;DHT22;20046;50.746;7.072;2023-02-04T05:43:41;7.10;99.90
33717;DHT22;20046;50.746;7.072;2023-02-04T05:46:07;7.10;99.90
33717;DHT22;20046;50.746;7.072;2023-02-04T05:48:32;7.00;99.90
33717;DHT22;20046;50.746;7.072;2023-02-04T05:50:58;7.00;99.90
33717;DHT22;20046;50.746;7.072;2023-02-04T05:53:24;7.00;99.90
33717;DHT22;20046;50.746;7.072;2023-02-04T05:55:49;7.00;99.90
33717;DHT22;20046;50.746;7.072;2023-02-04T05:58:15;7.00;99.90
33717;DHT22;20046;50.746;7.072;2023-02-04T06:00:40;7.00;99.90
33717;DHT22;20046;50.746;7.072;2023-02-04T06:03:06;7.00;99.90
33717;DHT22;20046;50.746;7.072;2023-02-04T06:05:31;7.00;99.90
33717;DHT22;20046;50.746;7.072;2023-02-04T06:07:57;6.90;99.90
33717;DHT22;20046;50.746;7.072;2023-02-04T06:10:23;6.90;99.90
33717;DHT22;20046;50.746;7.072;2023-02-04T06:12:48;6.90;99.90
33717;DHT22;20046;50.746;7.072;2023-02-04T06:15:14;6.90;99.90
33717;DHT22;20046;50.746;7.072;2023-02-04T06:17:40;6.90;99.90
33717;DHT22;20046;50.746;7.072;2023-02-04T06:20:06;6.90;99.90
33717;DHT22;20046;50.746;7.072;2023-02-04T06:22:32;6.90;99.90
33717;DHT22;20046;50.746;7.072;2023-02-04T06:24:58;6.90;99.90
33717;DHT22;20046;50.746;7.072;2023-02-04T06:27:23;6.90;99.90
33717;DHT22;20046;50.746;7.072;2023-02-04T06:29:50;6.90;99.90
33717;DHT22;20046;50.746;7.072;2023-02-04T06:32:16;6.90;99.90
33717;DHT22;20046;50.746;7.072;2023-02-04T06:34:42;6.90;99.90
33717;DHT22;20046;50.746;7.072;2023-02-04T06:37:08;6.90;99.90
33717;DHT22;20046;50.746;7.072;2023-02-04T06:39:34;6.90;99.90
33717;DHT22;20046;50.746;7.072;2023-02-04T06:42:00;6.90;99.90
33717;DHT22;20046;50.746;7.072;2023-02-04T06:44:26;6.90;99.90
33717;DHT22;20046;50.746;7.072;2023-02-04T06:46:51;6.80;99.90
33717;DHT22;20046;50.746;7.072;2023-02-04T06:49:17;6.80;99.90
33717;DHT22;20046;50.746;7.072;2023-02-04T06:51:43;6.80;99.90
33717;DHT22;20046;50.746;7.072;2023-02-04T06:54:08;6.80;99.90
33717;DHT22;20046;50.746;7.072;2023-02-04T06:56:34;6.80;99.90
33717;DHT22;20046;50.746;7.072;2023-02-04T06:58:59;6.80;99.90
33717;DHT22;20046;50.746;7.072;2023-02-04T07:01:25;6.80;99.90
33717;DHT22;20046;50.746;7.072;2023-02-04T07:03:50;6.80;99.90
33717;DHT22;20046;50.746;7.072;2023-02-04T07:06:16;6.80;99.90
33717;DHT22;20046;50.746;7.072;2023-02-04T07:08:41;6.80;99.90
33717;DHT22;20046;50.746;7.072;2023-02-04T07:11:07;6.80;99.90
33717;DHT22;20046;50.746;7.072;2023-02-04T07:13:33;6.80;99.90
33717;DHT22;20046;50.746;7.072;2023-02-04T07:15:58;6.80;99.90
33717;DHT22;20046;50.746;7.072;2023-02-04T07:18:24;6.80;99.90
33717;DHT22;20046;50.746;7.072;2023-02-04T07:20:49;6.80;99.90
33717;DHT22;20046;50.746;7.072;2023-02-04T07:23:15;6.80;99.90
33717;DHT22;20046;50.746;7.072;2023-02-04T07:25:40;6.80;99.90
33717;DHT22;20046;50.746;7.072;2023-02-04T07:28:08;6.80;99.90
33717;DHT22;20046;50.746;7.072;2023-02-04T07:30:34;6.70;99.90
33717;DHT22;20046;50.746;7.072;2023-02-04T07:32:59;6.80;99.90
33717;DHT22;20046;50.746;7.072;2023-02-04T07:35:25;6.80;99.90
33717;DHT22;20046;50.746;7.072;2023-02-04T07:37:50;6.80;99.90
33717;DHT22;20046;50.746;7.072;2023-02-04T07:40:16;6.80;99.90
33717;DHT22;20046;50.746;7.072;2023-02-04T07:42:42;6.90;99.90
33717;DHT22;20046;50.746;7.072;2023-02-04T07:45:08;6.90;99.90
33717;DHT22;20046;50.746;7.072;2023-02-04T07:47:33;7.00;99.90
33717;DHT22;20046;50.746;7.072;2023-02-04T07:49:59;7.00;99.90
33717;DHT22;20046;50.746;7.072;2023-02-04T07:52:25;7.10;99.90
33717;DHT22;20046;50.746;7.072;2023-02-04T07:54:50;7.10;99.90
33717;DHT22;20046;50.746;7.072;2023-02-04T07:57:18;7.10;99.90
33717;DHT22;20046;50.746;7.072;2023-02-04T07:59:43;7.20;99.90
33717;DHT22;20046;50.746;7.072;2023-02-04T08:02:11;7.30;99.90
33717;DHT22;20046;50.746;7.072;2023-02-04T08:04:37;7.30;99.90
33717;DHT22;20046;50.746;7.072;2023-02-04T08:07:03;7.30;99.90
33717;DHT22;20046;50.746;7.072;2023-02-04T08:09:29;7.40;99.90
33717;DHT22;20046;50.746;7.072;2023-02-04T08:11:54;7.50;99.90
33717;DHT22;20046;50.746;7.072;2023-02-04T08:14:20;7.50;99.90
33717;DHT22;20046;50.746;7.072;2023-02-04T08:16:46;7.60;99.90
33717;DHT22;20046;50.746;7.072;2023-02-04T08:19:11;7.60;99.90
33717;DHT22;20046;50.746;7.072;2023-02-04T08:21:44;7.60;99.90
33717;DHT22;20046;50.746;7.072;2023-02-04T08:24:11;7.70;99.90
33717;DHT22;20046;50.746;7.072;2023-02-04T08:26:37;7.70;99.90
33717;DHT22;20046;50.746;7.072;2023-02-04T08:29:02;7.70;99.90
33717;DHT22;20046;50.746;7.072;2023-02-04T08:31:28;7.70;99.90
33717;DHT22;20046;50.746;7.072;2023-02-04T08:33:53;7.80;99.90
33717;DHT22;20046;50.746;7.072;2023-02-04T08:36:19;7.80;99.90
33717;DHT22;20046;50.746;7.072;2023-02-04T08:38:45;7.80;99.90
33717;DHT22;20046;50.746;7.072;2023-02-04T08:41:10;7.90;99.90
33717;DHT22;20046;50.746;7.072;2023-02-04T08:43:36;8.00;99.90
33717;DHT22;20046;50.746;7.072;2023-02-04T08:46:01;8.10;99.90
33717;DHT22;20046;50.746;7.072;2023-02-04T08:48:27;8.20;99.90
33717;DHT22;20046;50.746;7.072;2023-02-04T08:50:53;8.30;99.90
33717;DHT22;20046;50.746;7.072;2023-02-04T08:53:18;8.50;99.90
33717;DHT22;20046;50.746;7.072;2023-02-04T08:55:44;8.70;99.90
33717;DHT22;20046;50.746;7.072;2023-02-04T08:58:09;8.90;99.90
33717;DHT22;20046;50.746;7.072;2023-02-04T09:00:35;9.10;99.90
33717;DHT22;20046;50.746;7.072;2023-02-04T09:03:01;9.00;99.90
33717;DHT22;20046;50.746;7.072;2023-02-04T09:05:26;9.10;99.90
33717;DHT22;20046;50.746;7.072;2023-02-04T09:07:52;9.10;99.90
33717;DHT22;20046;50.746;7.072;2023-02-04T09:10:17;9.00;99.90
33717;DHT22;20046;50.746;7.072;2023-02-04T09:12:43;9.10;99.90
33717;DHT22;20046;50.746;7.072;2023-02-04T09:15:10;9.10;99.90
33717;DHT22;20046;50.746;7.072;2023-02-04T09:17:36;9.20;99.90
33717;DHT22;20046;50.746;7.072;2023-02-04T09:20:03;9.30;99.90
33717;DHT22;20046;50.746;7.072;2023-02-04T09:22:28;9.30;99.90
33717;DHT22;20046;50.746;7.072;2023-02-04T09:24:54;9.30;99.90
33717;DHT22;20046;50.746;7.072;2023-02-04T09:27:20;9.40;99.90
33717;DHT22;20046;50.746;7.072;2023-02-04T09:29:46;9.40;99.90
33717;DHT22;20046;50.746;7.072;2023-02-04T09:32:11;9.50;99.90
33717;DHT22;20046;50.746;7.072;2023-02-04T09:34:37;9.50;99.90
33717;DHT22;20046;50.746;7.072;2023-02-04T09:37:02;9.50;99.90
33717;DHT22;20046;50.746;7.072;2023-02-04T09:39:28;9.50;99.90
33717;DHT22;20046;50.746;7.072;2023-02-04T09:41:54;9.50;99.90
33717;DHT22;20046;50.746;7.072;2023-02-04T09:44:22;9.60;99.90
33717;DHT22;20046;50.746;7.072;2023-02-04T09:46:54;9.60;99.90
33717;DHT22;20046;50.746;7.072;2023-02-04T09:49:20;9.70;99.90
33717;DHT22;20046;50.746;7.072;2023-02-04T09:51:47;9.70;99.90
33717;DHT22;20046;50.746;7.072;2023-02-04T09:54:18;9.70;99.90
33717;DHT22;20046;50.746;7.072;2023-02-04T09:56:44;9.70;99.90
33717;DHT22;20046;50.746;7.072;2023-02-04T09:59:18;9.80;99.90
33717;DHT22;20046;50.746;7.072;2023-02-04T10:01:59;9.70;99.90
33717;DHT22;20046;50.746;7.072;2023-02-04T10:04:25;9.70;99.90
33717;DHT22;20046;50.746;7.072;2023-02-04T10:06:50;9.80;99.90
33717;DHT22;20046;50.746;7.072;2023-02-04T10:09:17;9.90;99.90
33717;DHT22;20046;50.746;7.072;2023-02-04T10:11:44;10.00;99.90
33717;DHT22;20046;50.746;7.072;2023-02-04T10:14:14;10.10;99.90
33717;DHT22;20046;50.746;7.072;2023-02-04T10:16:41;10.20;99.90
33717;DHT22;20046;50.746;7.072;2023-02-04T10:19:13;10.30;99.90
33717;DHT22;20046;50.746;7.072;2023-02-04T10:21:46;10.30;99.90
33717;DHT22;20046;50.746;7.072;2023-02-04T10:24:18;10.40;99.90
33717;DHT22;20046;50.746;7.072;2023-02-04T10:26:46;10.40;99.90
33717;DHT22;20046;50.746;7.072;2023-02-04T10:29:22;10.40;99.90
33717;DHT22;20046;50.746;7.072;2023-02-04T10:31:50;10.30;99.90
33717;DHT22;20046;50.746;7.072;2023-02-04T10:34:21;10.20;99.90
33717;DHT22;20046;50.746;7.072;2023-02-04T10:36:55;10.20;99.90
33717;DHT22;20046;50.746;7.072;2023-02-04T10:39:27;10.10;99.90
33717;DHT22;20046;50.746;7.072;2023-02-04T10:42:02;10.00;99.90
33717;DHT22;20046;50.746;7.072;2023-02-04T10:44:30;10.00;99.90
33717;DHT22;20046;50.746;7.072;2023-02-04T10:47:04;9.90;99.90
33717;DHT22;20046;50.746;7.072;2023-02-04T10:49:30;9.90;99.90
33717;DHT22;20046;50.746;7.072;2023-02-04T10:51:56;9.90;99.90
33717;DHT22;20046;50.746;7.072;2023-02-04T10:54:34;9.90;99.90
33717;DHT22;20046;50.746;7.072;2023-02-04T10:57:18;9.80;99.90
33717;DHT22;20046;50.746;7.072;2023-02-04T10:59:50;9.80;99.90
33717;DHT22;20046;50.746;7.072;2023-02-04T11:05:19;9.90;99.90
33717;DHT22;20046;50.746;7.072;2023-02-04T11:07:46;10.10;99.90
33717;DHT22;20046;50.746;7.072;2023-02-04T11:10:22;10.10;99.90
33717;DHT22;20046;50.746;7.072;2023-02-04T11:15:43;10.20;99.90
33717;DHT22;20046;50.746;7.072;2023-02-04T11:20:37;10.10;99.90
33717;DHT22;20046;50.746;7.072;2023-02-04T11:23:34;10.10;99.90
33717;DHT22;20046;50.746;7.072;2023-02-04T11:26:12;10.00;99.90
33717;DHT22;20046;50.746;7.072;2023-02-04T11:28:50;10.00;99.90
33717;DHT22;20046;50.746;7.072;2023-02-04T11:33:45;10.00;99.90
33717;DHT22;20046;50.746;7.072;2023-02-04T11:36:12;10.10;99.90
33717;DHT22;20046;50.746;7.072;2023-02-04T11:38:43;10.20;99.90
33717;DHT22;20046;50.746;7.072;2023-02-04T11:43:52;10.40;99.90
33717;DHT22;20046;50.746;7.072;2023-02-04T11:46:19;10.50;99.90
33717;DHT22;20046;50.746;7.072;2023-02-04T11:48:45;10.50;99.90
33717;DHT22;20046;50.746;7.072;2023-02-04T11:51:15;10.50;99.90
33717;DHT22;20046;50.746;7.072;2023-02-04T11:53:42;10.50;99.90
33717;DHT22;20046;50.746;7.072;2023-02-04T11:56:21;10.60;99.90
33717;DHT22;20046;50.746;7.072;2023-02-04T11:58:47;10.70;99.90
33717;DHT22;20046;50.746;7.072;2023-02-04T12:01:21;10.80;99.90
33717;DHT22;20046;50.746;7.072;2023-02-04T12:03:54;11.10;99.90
33717;DHT22;20046;50.746;7.072;2023-02-04T12:06:24;11.20;99.90
33717;DHT22;20046;50.746;7.072;2023-02-04T12:08:51;11.50;99.90
33717;DHT22;20046;50.746;7.072;2023-02-04T12:11:27;11.80;99.90
33717;DHT22;20046;50.746;7.072;2023-02-04T12:14:05;12.00;99.90
33717;DHT22;20046;50.746;7.072;2023-02-04T12:16:40;12.00;99.90
33717;DHT22;20046;50.746;7.072;2023-02-04T12:19:06;12.00;99.90
33717;DHT22;20046;50.746;7.072;2023-02-04T12:21:31;11.90;99.90
33717;DHT22;20046;50.746;7.072;2023-02-04T12:23:57;11.70;99.90
33717;DHT22;20046;50.746;7.072;2023-02-04T12:26:22;11.50;99.90
33717;DHT22;20046;50.746;7.072;2023-02-04T12:28:48;11.50;99.90
33717;DHT22;20046;50.746;7.072;2023-02-04T12:31:13;11.30;99.90
33717;DHT22;20046;50.746;7.072;2023-02-04T12:33:39;11.20;99.90
33717;DHT22;20046;50.746;7.072;2023-02-04T12:36:05;11.10;99.90
33717;DHT22;20046;50.746;7.072;2023-02-04T12:38:31;10.90;99.90
33717;DHT22;20046;50.746;7.072;2023-02-04T12:40:56;10.90;99.90
33717;DHT22;20046;50.746;7.072;2023-02-04T12:43:22;11.00;99.90
33717;DHT22;20046;50.746;7.072;2023-02-04T12:45:47;11.00;99.90
33717;DHT22;20046;50.746;7.072;2023-02-04T12:48:14;11.00;99.90
33717;DHT22;20046;50.746;7.072;2023-02-04T12:50:39;11.10;99.90
33717;DHT22;20046;50.746;7.072;2023-02-04T12:53:05;11.20;99.90
33717;DHT22;20046;50.746;7.072;2023-02-04T12:55:31;11.20;99.90
33717;DHT22;20046;50.746;7.072;2023-02-04T12:57:57;11.20;99.90
33717;DHT22;20046;50.746;7.072;2023-02-04T13:00:23;11.30;99.90
33717;DHT22;20046;50.746;7.072;2023-02-04T13:02:48;11.40;99.90
33717;DHT22;20046;50.746;7.072;2023-02-04T13:05:15;11.40;99.90
33717;DHT22;20046;50.746;7.072;2023-02-04T13:07:41;11.40;99.90
33717;DHT22;20046;50.746;7.072;2023-02-04T13:10:10;11.30;99.90
33717;DHT22;20046;50.746;7.072;2023-02-04T13:12:36;11.40;99.90
33717;DHT22;20046;50.746;7.072;2023-02-04T13:15:03;11.40;99.90
33717;DHT22;20046;50.746;7.072;2023-02-04T13:17:29;11.40;99.90
33717;DHT22;20046;50.746;7.072;2023-02-04T13:19:55;11.50;99.90
33717;DHT22;20046;50.746;7.072;2023-02-04T13:22:20;11.50;99.90
33717;DHT22;20046;50.746;7.072;2023-02-04T13:24:46;11.50;99.90
33717;DHT22;20046;50.746;7.072;2023-02-04T13:27:11;11.60;99.90
33717;DHT22;20046;50.746;7.072;2023-02-04T13:29:37;11.70;99.90
33717;DHT22;20046;50.746;7.072;2023-02-04T13:32:03;11.70;99.90
33717;DHT22;20046;50.746;7.072;2023-02-04T13:34:29;11.80;99.90
33717;DHT22;20046;50.746;7.072;2023-02-04T13:36:54;11.90;99.90
33717;DHT22;20046;50.746;7.072;2023-02-04T13:39:20;11.80;99.90
33717;DHT22;20046;50.746;7.072;2023-02-04T13:41:46;11.90;99.90
33717;DHT22;20046;50.746;7.072;2023-02-04T13:44:12;11.90;99.90
33717;DHT22;20046;50.746;7.072;2023-02-04T13:46:37;11.80;99.90
33717;DHT22;20046;50.746;7.072;2023-02-04T13:49:03;11.80;99.90
33717;DHT22;20046;50.746;7.072;2023-02-04T13:51:29;11.80;99.90
33717;DHT22;20046;50.746;7.072;2023-02-04T13:53:55;11.90;99.90
33717;DHT22;20046;50.746;7.072;2023-02-04T13:56:20;11.90;99.90
33717;DHT22;20046;50.746;7.072;2023-02-04T13:58:46;11.80;99.90
33717;DHT22;20046;50.746;7.072;2023-02-04T14:01:12;11.90;99.90
33717;DHT22;20046;50.746;7.072;2023-02-04T14:03:38;11.90;99.90
33717;DHT22;20046;50.746;7.072;2023-02-04T14:06:04;12.10;99.90
33717;DHT22;20046;50.746;7.072;2023-02-04T14:08:30;12.10;99.90
33717;DHT22;20046;50.746;7.072;2023-02-04T14:10:56;12.40;99.90
33717;DHT22;20046;50.746;7.072;2023-02-04T14:13:21;13.00;99.90
33717;DHT22;20046;50.746;7.072;2023-02-04T14:15:47;13.30;99.90
33717;DHT22;20046;50.746;7.072;2023-02-04T14:18:12;13.40;99.90
33717;DHT22;20046;50.746;7.072;2023-02-04T14:20:41;13.60;99.90
33717;DHT22;20046;50.746;7.072;2023-02-04T14:23:06;13.30;99.90
33717;DHT22;20046;50.746;7.072;2023-02-04T14:25:32;13.10;99.90
33717;DHT22;20046;50.746;7.072;2023-02-04T14:27:58;12.80;99.90
33717;DHT22;20046;50.746;7.072;2023-02-04T14:30:26;12.50;99.90
33717;DHT22;20046;50.746;7.072;2023-02-04T14:32:52;12.30;99.90
33717;DHT22;20046;50.746;7.072;2023-02-04T14:35:18;12.10;99.90
33717;DHT22;20046;50.746;7.072;2023-02-04T14:37:44;11.90;99.90
33717;DHT22;20046;50.746;7.072;2023-02-04T14:40:10;11.90;99.90
33717;DHT22;20046;50.746;7.072;2023-02-04T14:42:36;12.10;99.90
33717;DHT22;20046;50.746;7.072;2023-02-04T14:45:04;12.40;99.90
33717;DHT22;20046;50.746;7.072;2023-02-04T14:47:34;12.40;99.90
33717;DHT22;20046;50.746;7.072;2023-02-04T14:49:59;12.50;99.90
33717;DHT22;20046;50.746;7.072;2023-02-04T14:52:25;12.70;99.90
33717;DHT22;20046;50.746;7.072;2023-02-04T14:54:50;12.60;99.90
33717;DHT22;20046;50.746;7.072;2023-02-04T14:57:16;12.80;99.90
33717;DHT22;20046;50.746;7.072;2023-02-04T14:59:42;12.70;99.90
33717;DHT22;20046;50.746;7.072;2023-02-04T15:02:08;12.70;99.90
33717;DHT22;20046;50.746;7.072;2023-02-04T15:04:34;12.60;99.90
33717;DHT22;20046;50.746;7.072;2023-02-04T15:07:00;12.50;99.90
33717;DHT22;20046;50.746;7.072;2023-02-04T15:09:26;12.50;99.90
33717;DHT22;20046;50.746;7.072;2023-02-04T15:11:52;12.30;99.90
33717;DHT22;20046;50.746;7.072;2023-02-04T15:14:18;12.10;99.90
33717;DHT22;20046;50.746;7.072;2023-02-04T15:16:44;11.80;99.90
33717;DHT22;20046;50.746;7.072;2023-02-04T15:19:13;11.50;99.90
33717;DHT22;20046;50.746;7.072;2023-02-04T15:21:38;11.30;99.90
33717;DHT22;20046;50.746;7.072;2023-02-04T15:24:04;11.00;99.90
33717;DHT22;20046;50.746;7.072;2023-02-04T15:26:29;10.80;99.90
33717;DHT22;20046;50.746;7.072;2023-02-04T15:28:55;10.60;99.90
33717;DHT22;20046;50.746;7.072;2023-02-04T15:31:21;10.50;99.90
33717;DHT22;20046;50.746;7.072;2023-02-04T15:33:47;10.40;99.90
33717;DHT22;20046;50.746;7.072;2023-02-04T15:36:12;10.30;99.90
33717;DHT22;20046;50.746;7.072;2023-02-04T15:38:38;10.10;99.90
33717;DHT22;20046;50.746;7.072;2023-02-04T15:41:04;10.10;99.90
33717;DHT22;20046;50.746;7.072;2023-02-04T15:43:29;10.00;99.90
33717;DHT22;20046;50.746;7.072;2023-02-04T15:45:55;9.90;99.90
33717;DHT22;20046;50.746;7.072;2023-02-04T15:48:21;9.80;99.90
33717;DHT22;20046;50.746;7.072;2023-02-04T15:50:49;9.80;99.90
33717;DHT22;20046;50.746;7.072;2023-02-04T15:53:15;9.70;99.90